Time;durP1;ratioP1;P1;durP2;ratioP2;P2;SDS_P1;SDS_P2;PMS_P1;PMS_P2;Temp;Humidity;BMP_temperature;BMP_pressure;BME280_temperature;BME280_humidity;BME280_pressure;Samples;Min_cycle;Max_cycle;Signal;HPM_P1;HPM_P2
2023/05/06 00:01:29;;;;;;;7.40;5.30;;;;;;;11.97;100.00;98490.19;4186039;28;20118;-74
2023/05/06 00:03:29;;;;;;;7.15;5.07;;;;;;;12.02;100.00;98484.28;4187092;28;20156;-74
2023/05/06 00:05:29;;;;;;;7.90;5.18;;;;;;;12.05;100.00;98475.19;4186151;28;20044;-74
2023/05/06 00:07:29;;;;;;;6.60;5.32;;;;;;;12.06;100.00;98474.78;4185989;28;20033;-74
2023/05/06 00:09:30;;;;;;;5.10;4.18;;;;;;;12.06;100.00;98472.03;4181553;28;20068;-74
2023/05/06 00:11:30;;;;;;;6.65;4.70;;;;;;;12.09;100.00;98478.78;4181692;28;20099;-74
2023/05/06 00:13:30;;;;;;;5.95;4.50;;;;;;;12.13;100.00;98476.81;4184725;28;20049;-74
2023/05/06 00:15:31;;;;;;;6.55;4.43;;;;;;;12.12;100.00;98466.91;4186943;28;20286;-74
2023/05/06 00:17:31;;;;;;;7.53;5.28;;;;;;;12.09;100.00;98471.25;4181526;28;20127;-74
2023/05/06 00:19:32;;;;;;;5.97;4.45;;;;;;;12.03;100.00;98467.25;4182968;28;20037;-74
2023/05/06 00:21:32;;;;;;;9.57;5.20;;;;;;;12.02;100.00;98462.91;4188134;28;20052;-74
2023/05/06 00:23:33;;;;;;;6.97;5.05;;;;;;;11.98;100.00;98464.06;4180271;28;20033;-74
2023/05/06 00:25:33;;;;;;;9.00;5.25;;;;;;;11.94;100.00;98458.50;4181931;28;20044;-74
2023/05/06 00:27:33;;;;;;;6.55;4.90;;;;;;;11.91;100.00;98466.78;4185544;28;20374;-74
2023/05/06 00:29:34;;;;;;;7.07;5.32;;;;;;;11.86;100.00;98467.16;4182251;28;20279;-74
2023/05/06 00:31:34;;;;;;;7.32;5.75;;;;;;;11.83;100.00;98457.63;4180676;28;20049;-74
2023/05/06 00:33:34;;;;;;;7.88;5.70;;;;;;;11.78;100.00;98458.78;4180421;28;20380;-74
2023/05/06 00:35:35;;;;;;;9.05;5.70;;;;;;;11.82;100.00;98458.81;4186868;28;20629;-74
2023/05/06 00:37:35;;;;;;;8.52;5.88;;;;;;;11.75;100.00;98453.19;4185691;28;20048;-74
2023/05/06 00:39:35;;;;;;;6.15;5.10;;;;;;;11.72;100.00;98454.75;4185365;28;20048;-74
2023/05/06 00:41:36;;;;;;;10.38;6.60;;;;;;;11.71;100.00;98461.50;4181278;28;20052;-74
2023/05/06 00:43:37;;;;;;;8.25;6.10;;;;;;;11.68;100.00;98459.50;4182431;28;20523;-74
2023/05/06 00:45:37;;;;;;;8.57;5.93;;;;;;;11.71;100.00;98463.47;4183963;28;20500;-74
2023/05/06 00:47:38;;;;;;;8.43;6.13;;;;;;;11.74;100.00;98462.69;4181917;28;20037;-74
2023/05/06 00:49:39;;;;;;;7.63;6.10;;;;;;;11.80;100.00;98450.88;4182688;28;20037;-74
2023/05/06 00:51:39;;;;;;;7.15;5.35;;;;;;;11.88;100.00;98460.03;4178846;28;20067;-74
2023/05/06 00:53:40;;;;;;;9.27;6.82;;;;;;;11.96;100.00;98461.66;4181016;28;20049;-74
2023/05/06 00:55:40;;;;;;;8.55;6.18;;;;;;;11.99;100.00;98465.63;4188208;28;20036;-74
2023/05/06 00:57:41;;;;;;;8.27;6.40;;;;;;;11.97;100.00;98454.94;4183942;28;20553;-74
2023/05/06 00:59:41;;;;;;;7.22;5.57;;;;;;;11.92;100.00;98458.09;4182521;28;20036;-74
2023/05/06 01:01:42;;;;;;;9.07;6.47;;;;;;;11.84;100.00;98462.00;4181268;28;20040;-74
2023/05/06 01:03:43;;;;;;;9.88;6.43;;;;;;;11.79;100.00;98473.41;4182681;28;20040;-74
2023/05/06 01:06:02;;;;;;;7.43;5.93;;;;;;;11.73;100.00;98477.72;4182361;28;20446;-74
2023/05/06 01:08:11;;;;;;;8.52;6.07;;;;;;;11.68;100.00;98467.81;4183047;28;20057;-75
2023/05/06 01:10:24;;;;;;;8.13;6.13;;;;;;;11.67;100.00;98474.53;4184540;28;20456;-74
2023/05/06 01:12:27;;;;;;;8.07;6.80;;;;;;;11.69;100.00;98474.16;4187075;28;20119;-74
2023/05/06 01:14:37;;;;;;;8.27;6.30;;;;;;;11.65;100.00;98470.53;4181913;28;20051;-74
2023/05/06 01:16:40;;;;;;;7.85;5.93;;;;;;;11.62;100.00;98465.78;4179752;28;20032;-74
2023/05/06 01:18:43;;;;;;;7.82;6.45;;;;;;;11.58;100.00;98467.72;4182104;28;20070;-74
2023/05/06 01:20:48;;;;;;;7.38;6.00;;;;;;;11.49;100.00;98454.19;4181857;28;20072;-74
2023/05/06 01:22:49;;;;;;;8.23;6.18;;;;;;;11.45;100.00;98456.16;4178788;28;20487;-74
2023/05/06 01:24:49;;;;;;;9.25;5.32;;;;;;;11.43;100.00;98461.31;4188382;28;20465;-74
2023/05/06 01:26:50;;;;;;;6.50;5.05;;;;;;;11.38;100.00;98458.88;4186793;28;20048;-74
2023/05/06 01:28:50;;;;;;;7.70;5.32;;;;;;;11.33;100.00;98454.47;4185310;28;20041;-74
2023/05/06 01:30:50;;;;;;;6.20;5.07;;;;;;;11.30;100.00;98457.22;4179840;28;20427;-74
2023/05/06 01:33:10;;;;;;;7.25;5.22;;;;;;;11.23;100.00;98449.66;4183135;28;20470;-74
2023/05/06 01:35:26;;;;;;;6.78;5.45;;;;;;;11.18;100.00;98450.00;4179515;28;20212;-74
2023/05/06 01:37:40;;;;;;;7.07;5.68;;;;;;;11.10;100.00;98449.16;4181528;28;20071;-74
2023/05/06 01:39:43;;;;;;;10.73;6.03;;;;;;;11.08;100.00;98450.69;4184888;28;20478;-74
2023/05/06 01:41:45;;;;;;;;;;;;;;;11.10;100.00;98456.66;4179914;28;20036;-74
2023/05/06 01:43:48;;;;;;;8.32;5.53;;;;;;;11.07;100.00;98454.66;4183856;28;20042;-74
2023/05/06 01:45:53;;;;;;;7.85;5.20;;;;;;;11.03;100.00;98457.41;4183623;28;20439;-74
2023/05/06 01:47:54;;;;;;;7.68;5.53;;;;;;;11.08;100.00;98459.00;4187211;28;20389;-74
2023/05/06 01:49:56;;;;;;;9.02;5.90;;;;;;;11.01;100.00;98458.97;4182932;28;20044;-74
2023/05/06 01:51:56;;;;;;;9.55;6.65;;;;;;;10.92;100.00;98454.53;4180370;28;20044;-74
2023/05/06 01:53:57;;;;;;;8.68;6.70;;;;;;;10.87;100.00;98456.84;4186793;28;20044;-74
2023/05/06 01:55:57;;;;;;;11.80;6.75;;;;;;;10.82;100.00;98449.66;4177954;28;20043;-74
2023/05/06 01:57:57;;;;;;;10.15;6.43;;;;;;;10.82;100.00;98446.09;4177758;28;20049;-74
2023/05/06 01:59:58;;;;;;;6.07;4.78;;;;;;;10.81;100.00;98458.34;4183669;28;20052;-74
2023/05/06 02:01:58;;;;;;;7.65;4.93;;;;;;;10.79;100.00;98450.44;4183013;28;20056;-74
2023/05/06 02:03:58;;;;;;;7.95;5.32;;;;;;;10.75;100.00;98455.13;4183093;28;20036;-74
2023/05/06 02:05:59;;;;;;;6.72;5.07;;;;;;;10.76;100.00;98455.91;4181522;28;20048;-74
2023/05/06 02:07:59;;;;;;;6.75;4.70;;;;;;;10.71;100.00;98456.28;4179523;28;20048;-74
2023/05/06 02:09:59;;;;;;;5.25;4.40;;;;;;;10.64;100.00;98448.69;4184492;28;20127;-74
2023/05/06 02:12:00;;;;;;;5.60;4.82;;;;;;;10.60;100.00;98459.72;4180645;28;20136;-74
2023/05/06 02:14:00;;;;;;;6.03;4.28;;;;;;;10.51;100.00;98458.41;4178407;28;20068;-74
2023/05/06 02:16:01;;;;;;;5.93;4.55;;;;;;;10.48;100.00;98461.94;4181248;28;20152;-74
2023/05/06 02:18:02;;;;;;;5.93;4.90;;;;;;;10.46;100.00;98447.72;4183855;28;20031;-74
2023/05/06 02:20:02;;;;;;;6.13;4.60;;;;;;;10.45;100.00;98468.25;4179608;28;20029;-74
2023/05/06 02:22:03;;;;;;;5.55;4.45;;;;;;;10.34;100.00;98457.84;4179074;28;20127;-75
2023/05/06 02:24:03;;;;;;;6.57;4.70;;;;;;;10.30;100.00;98461.75;4177169;28;20507;-74
2023/05/06 02:26:04;;;;;;;6.40;4.38;;;;;;;10.34;100.00;98457.84;4184511;28;20101;-75
2023/05/06 02:28:04;;;;;;;5.55;4.18;;;;;;;10.33;100.00;98452.69;4186604;28;20348;-74
2023/05/06 02:30:05;;;;;;;5.25;4.30;;;;;;;10.32;100.00;98468.47;4183658;28;20016;-75
2023/05/06 02:32:05;;;;;;;5.32;3.97;;;;;;;10.30;100.00;98465.31;4180616;28;20040;-75
2023/05/06 02:34:08;;;;;;;5.40;4.35;;;;;;;10.27;100.00;98471.59;4183236;28;20024;-74
2023/05/06 02:36:08;;;;;;;6.10;4.60;;;;;;;10.24;100.00;98474.28;4181092;28;20332;-74
2023/05/06 02:38:08;;;;;;;7.10;4.40;;;;;;;10.18;100.00;98471.06;4185648;28;20040;-74
2023/05/06 02:40:09;;;;;;;6.07;4.47;;;;;;;10.10;100.00;98472.94;4178789;28;20037;-74
2023/05/06 02:42:12;;;;;;;7.18;5.18;;;;;;;10.06;100.00;98482.34;4178788;28;20032;-74
2023/05/06 02:44:12;;;;;;;5.53;4.47;;;;;;;10.04;100.00;98471.66;4179099;28;20702;-74
2023/05/06 02:46:12;;;;;;;6.00;4.65;;;;;;;10.02;100.00;98470.44;4179880;28;20029;-74
2023/05/06 02:48:13;;;;;;;7.00;5.05;;;;;;;9.97;100.00;98470.75;4187862;28;20020;-75
2023/05/06 02:50:13;;;;;;;6.70;5.05;;;;;;;9.97;100.00;98477.09;4180821;28;20496;-74
2023/05/06 02:52:13;;;;;;;5.53;4.40;;;;;;;9.97;100.00;98474.31;4180358;28;20118;-74
2023/05/06 02:54:14;;;;;;;5.40;4.30;;;;;;;9.94;100.00;98474.28;4179737;28;20416;-74
2023/05/06 02:56:14;;;;;;;4.95;4.10;;;;;;;9.89;100.00;98469.88;4182551;28;20025;-74
2023/05/06 02:58:14;;;;;;;7.10;5.25;;;;;;;9.83;100.00;98469.38;4179195;28;20056;-74
2023/05/06 03:00:15;;;;;;;6.43;4.55;;;;;;;9.83;100.00;98471.34;4181425;28;20858;-74
2023/05/06 03:02:15;;;;;;;6.07;4.70;;;;;;;9.88;100.00;98467.47;4184132;28;20067;-74
2023/05/06 03:04:16;;;;;;;7.18;4.80;;;;;;;9.88;100.00;98470.25;4180255;28;20372;-74
2023/05/06 03:06:16;;;;;;;4.60;3.90;;;;;;;9.91;100.00;98464.75;4182901;28;20477;-74
2023/05/06 03:08:16;;;;;;;5.78;3.97;;;;;;;9.93;100.00;98470.72;4180353;28;20079;-74
2023/05/06 03:10:17;;;;;;;5.18;4.03;;;;;;;9.93;100.00;98470.72;4182643;28;20335;-73
2023/05/06 03:12:17;;;;;;;5.43;4.40;;;;;;;9.92;100.00;98469.09;4188019;28;20020;-73
2023/05/06 03:14:17;;;;;;;8.98;4.40;;;;;;;9.89;100.00;98467.09;4179853;28;20489;-73
2023/05/06 03:16:18;;;;;;;5.53;4.22;;;;;;;9.84;100.00;98468.22;4177117;28;20064;-73
2023/05/06 03:18:19;;;;;;;5.72;4.80;;;;;;;9.88;100.00;98462.75;4185131;28;20028;-73
2023/05/06 03:20:20;;;;;;;7.30;4.93;;;;;;;9.90;100.00;98468.69;4179180;28;20079;-73
2023/05/06 03:22:20;;;;;;;9.35;5.70;;;;;;;9.97;100.00;98470.75;4186054;28;20013;-73
2023/05/06 03:24:20;;;;;;;7.18;5.53;;;;;;;9.91;100.00;98464.75;4178331;28;20059;-73
2023/05/06 03:26:21;;;;;;;7.55;5.65;;;;;;;9.92;100.00;98471.88;4182164;28;20104;-73
2023/05/06 03:28:21;;;;;;;20.35;5.93;;;;;;;9.90;100.00;98474.22;4178306;28;20077;-73
2023/05/06 03:30:21;;;;;;;8.63;6.07;;;;;;;9.88;100.00;98468.28;4183034;28;20437;-73
2023/05/06 03:32:21;;;;;;;13.23;6.55;;;;;;;9.95;100.00;98478.63;4180440;28;20043;-73
2023/05/06 03:34:22;;;;;;;8.55;6.45;;;;;;;9.94;100.00;98468.75;4178860;28;20485;-73
2023/05/06 03:36:26;;;;;;;9.63;6.78;;;;;;;9.95;100.00;98473.91;4184024;28;20480;-73
2023/05/06 03:38:27;;;;;;;15.18;6.88;;;;;;;9.92;100.00;98474.63;4179271;28;20033;-73
2023/05/06 03:40:27;;;;;;;9.88;6.93;;;;;;;9.91;100.00;98484.09;4182145;28;20044;-73
2023/05/06 03:42:27;;;;;;;9.35;6.35;;;;;;;9.90;100.00;98490.00;4176769;28;20043;-73
2023/05/06 03:44:28;;;;;;;8.60;6.63;;;;;;;9.94;100.00;98488.09;4180563;28;20533;-73
2023/05/06 03:46:28;;;;;;;8.30;6.07;;;;;;;9.98;100.00;98494.47;4188172;28;20072;-73
2023/05/06 03:48:28;;;;;;;9.18;6.60;;;;;;;9.89;100.00;98491.97;4180645;28;20174;-73
2023/05/06 03:50:29;;;;;;;8.50;6.80;;;;;;;9.79;100.00;98492.63;4183075;28;20041;-73
2023/05/06 03:52:30;;;;;;;10.43;7.45;;;;;;;9.79;100.00;98489.84;4180409;28;20093;-73
2023/05/06 03:54:30;;;;;;;9.95;7.13;;;;;;;9.79;100.00;98500.91;4178435;28;20500;-73
2023/05/06 03:56:30;;;;;;;12.75;7.25;;;;;;;9.77;100.00;98495.75;4186083;28;20614;-73
2023/05/06 03:58:31;;;;;;;10.18;6.80;;;;;;;9.74;100.00;98503.97;4178956;28;20378;-73
2023/05/06 04:00:31;;;;;;;11.60;7.57;;;;;;;9.75;100.00;98497.28;4181905;28;20087;-73
2023/05/06 04:02:34;;;;;;;9.30;6.85;;;;;;;9.75;100.00;98505.56;4181418;28;20064;-73
2023/05/06 04:04:34;;;;;;;11.32;7.40;;;;;;;9.73;100.00;98510.69;4184890;28;20171;-73
2023/05/06 04:06:34;;;;;;;10.15;7.53;;;;;;;9.77;100.00;98512.34;4179361;28;20049;-73
2023/05/06 04:08:35;;;;;;;10.95;7.60;;;;;;;9.77;100.00;98511.53;4180311;28;20069;-73
2023/05/06 04:10:39;;;;;;;11.32;7.75;;;;;;;9.77;100.00;98512.34;4181073;28;20065;-73
2023/05/06 04:12:39;;;;;;;12.73;8.00;;;;;;;9.77;100.00;98514.31;4177631;28;20072;-73
2023/05/06 04:14:39;;;;;;;9.50;7.10;;;;;;;9.79;100.00;98512.75;4185016;28;20096;-73
2023/05/06 04:16:40;;;;;;;13.13;9.18;;;;;;;9.79;100.00;98517.50;4177108;28;20049;-73
2023/05/06 04:18:40;;;;;;;11.98;8.30;;;;;;;9.76;100.00;98513.50;4183075;28;20376;-73
2023/05/06 04:20:40;;;;;;;14.02;8.75;;;;;;;9.78;100.00;98513.94;4179710;28;20099;-73
2023/05/06 04:22:41;;;;;;;13.43;8.52;;;;;;;9.78;100.00;98524.19;4186544;28;20049;-73
2023/05/06 04:24:41;;;;;;;12.63;9.18;;;;;;;9.76;100.00;98513.50;4180764;28;20531;-73
2023/05/06 04:26:41;;;;;;;12.70;8.35;;;;;;;9.79;100.00;98517.50;4182554;28;20090;-73
2023/05/06 04:28:42;;;;;;;11.93;8.13;;;;;;;9.83;100.00;98515.56;4182786;28;20300;-73
2023/05/06 04:30:43;;;;;;;11.27;8.30;;;;;;;9.85;100.00;98533.38;4180423;28;20060;-73
2023/05/06 04:32:43;;;;;;;10.45;7.53;;;;;;;9.86;100.00;98531.41;4178050;28;20117;-73
2023/05/06 04:34:46;;;;;;;11.55;8.20;;;;;;;9.92;100.00;98535.44;4183862;28;20465;-73
2023/05/06 04:36:46;;;;;;;12.98;8.23;;;;;;;9.92;100.00;98540.97;4181034;28;20053;-73
2023/05/06 04:38:47;;;;;;;11.55;8.13;;;;;;;9.92;100.00;98540.97;4181912;28;20041;-73
2023/05/06 04:40:48;;;;;;;11.52;8.13;;;;;;;9.91;100.00;98538.56;4180700;28;20068;-73
2023/05/06 04:42:48;;;;;;;10.63;7.18;;;;;;;9.92;100.00;98540.16;4181124;28;20068;-73
2023/05/06 04:44:49;;;;;;;11.95;7.65;;;;;;;9.89;100.00;98544.47;4181403;28;20060;-72
2023/05/06 04:46:50;;;;;;;13.40;8.70;;;;;;;9.86;100.00;98548.00;4181751;28;20076;-73
2023/05/06 04:48:50;;;;;;;10.57;7.30;;;;;;;9.82;100.00;98547.94;4183326;28;20033;-73
2023/05/06 04:50:50;;;;;;;10.32;7.60;;;;;;;9.88;100.00;98561.44;4180183;28;20140;-73
2023/05/06 04:52:50;;;;;;;10.63;6.63;;;;;;;9.85;100.00;98561.03;4186767;28;20140;-73
2023/05/06 04:54:51;;;;;;;9.80;7.25;;;;;;;9.86;100.00;98570.09;4185017;28;20033;-73
2023/05/06 04:56:52;;;;;;;10.85;7.38;;;;;;;9.85;100.00;98568.50;4180817;28;20064;-73
2023/05/06 04:58:52;;;;;;;9.18;7.03;;;;;;;9.90;100.00;98573.72;4184735;28;20054;-73
2023/05/06 05:00:53;;;;;;;10.02;7.45;;;;;;;9.92;100.00;98571.38;4180745;28;20040;-73
2023/05/06 05:02:53;;;;;;;10.50;7.45;;;;;;;9.95;100.00;98578.94;4185235;28;20040;-73
2023/05/06 05:04:53;;;;;;;11.15;6.68;;;;;;;9.98;100.00;98580.94;4180812;28;20049;-73
2023/05/06 05:06:54;;;;;;;10.18;7.50;;;;;;;9.97;100.00;98570.25;4182909;28;20045;-73
2023/05/06 05:08:54;;;;;;;10.20;7.40;;;;;;;10.00;100.00;98580.56;4183208;28;20033;-73
2023/05/06 05:10:55;;;;;;;10.30;7.50;;;;;;;9.98;100.00;98578.19;4185015;28;20036;-73
2023/05/06 05:12:55;;;;;;;9.90;6.97;;;;;;;10.06;100.00;98584.63;4182287;28;20468;-73
2023/05/06 05:14:55;;;;;;;8.68;6.80;;;;;;;10.09;100.00;98576.38;4185142;28;20141;-73
2023/05/06 05:16:56;;;;;;;8.48;6.53;;;;;;;10.13;100.00;98579.19;4179342;28;20063;-73
2023/05/06 05:18:56;;;;;;;9.13;6.68;;;;;;;10.16;100.00;98586.72;4187230;28;20032;-73
2023/05/06 05:20:56;;;;;;;11.48;7.40;;;;;;;10.21;100.00;98582.88;4185250;28;20048;-73
2023/05/06 05:22:57;;;;;;;11.15;7.63;;;;;;;10.25;100.00;98583.72;4183365;28;20396;-73
2023/05/06 05:24:57;;;;;;;10.55;7.32;;;;;;;10.27;100.00;98582.22;4189183;28;20040;-73
2023/05/06 05:26:57;;;;;;;11.82;7.57;;;;;;;10.33;100.00;98583.44;4182314;28;20385;-73
2023/05/06 05:28:58;;;;;;;11.27;8.27;;;;;;;10.38;100.00;98587.88;4186358;28;20397;-73
2023/05/06 05:31:04;;;;;;;13.40;9.27;;;;;;;10.37;100.00;98589.06;4183158;28;20037;-73
2023/05/06 05:33:05;;;;;;;14.80;9.15;;;;;;;10.41;100.00;98598.19;4179816;28;20401;-73
2023/05/06 05:35:05;;;;;;;14.40;9.88;;;;;;;10.43;100.00;98598.63;4180347;28;20041;-73
2023/05/06 05:37:05;;;;;;;14.23;9.35;;;;;;;10.46;100.00;98583.25;4183204;28;20043;-73
2023/05/06 05:39:06;;;;;;;17.15;11.45;;;;;;;10.59;100.00;98598.41;4187804;28;20263;-73
2023/05/06 05:41:06;;;;;;;14.80;10.18;;;;;;;10.63;100.00;98591.78;4183369;28;20079;-73
2023/05/06 05:43:06;;;;;;;14.30;9.73;;;;;;;10.70;100.00;98602.16;4181524;28;20440;-73
2023/05/06 05:45:07;;;;;;;16.67;10.23;;;;;;;10.72;100.00;98604.53;4181245;28;20128;-73
2023/05/06 05:47:07;;;;;;;14.15;9.38;;;;;;;10.77;100.00;98598.69;4181800;28;20036;-73
2023/05/06 05:49:08;;;;;;;15.18;9.38;;;;;;;10.76;100.00;98600.66;4184544;28;20041;-73
2023/05/06 05:51:09;;;;;;;14.98;9.38;;;;;;;10.81;100.00;98593.97;4184702;28;20232;-73
2023/05/06 05:53:09;;;;;;;14.18;9.30;;;;;;;10.83;100.00;98605.44;4182072;28;20059;-73
2023/05/06 05:55:10;;;;;;;13.20;9.20;;;;;;;10.87;100.00;98601.56;4179831;28;20065;-73
2023/05/06 05:57:10;;;;;;;15.20;9.27;;;;;;;10.95;100.00;98608.00;4181933;28;20440;-73
2023/05/06 05:59:10;;;;;;;12.40;8.40;;;;;;;11.03;100.00;98609.66;4186131;28;20036;-73
2023/05/06 06:01:10;;;;;;;13.20;8.27;;;;;;;11.09;100.00;98597.09;4182816;28;20056;-73
2023/05/06 06:03:11;;;;;;;12.65;8.32;;;;;;;11.10;100.00;98598.69;4181312;28;20481;-73
2023/05/06 06:05:11;;;;;;;10.63;7.32;;;;;;;11.16;100.00;98599.91;4182373;28;20145;-73
2023/05/06 06:07:11;;;;;;;13.38;7.30;;;;;;;11.16;100.00;98599.91;4183657;28;20041;-73
2023/05/06 06:09:12;;;;;;;9.55;6.75;;;;;;;11.22;100.00;98601.16;4182695;28;20041;-73
2023/05/06 06:11:12;;;;;;;8.77;6.00;;;;;;;11.24;100.00;98601.56;4181708;28;20080;-73
2023/05/06 06:13:13;;;;;;;10.50;6.20;;;;;;;11.33;100.00;98592.97;4185313;28;20041;-73
2023/05/06 06:15:13;;;;;;;8.82;5.60;;;;;;;11.42;100.00;98606.50;4181551;28;20451;-73
2023/05/06 06:17:14;;;;;;;10.38;6.93;;;;;;;11.54;100.00;98600.69;4180662;28;20491;-73
2023/05/06 06:19:15;;;;;;;10.43;7.22;;;;;;;11.66;100.00;98607.94;4181809;28;20476;-73
2023/05/06 06:21:15;;;;;;;10.65;6.95;;;;;;;11.76;100.00;98610.03;4182201;28;20163;-73
2023/05/06 06:23:15;;;;;;;8.88;6.28;;;;;;;11.84;100.00;98608.94;4183233;28;20045;-73
2023/05/06 06:25:16;;;;;;;10.07;7.40;;;;;;;11.89;100.00;98608.56;4183359;28;20044;-73
2023/05/06 06:27:16;;;;;;;10.63;7.32;;;;;;;11.91;100.00;98603.44;4184057;28;20033;-73
2023/05/06 06:29:16;;;;;;;10.27;7.00;;;;;;;12.01;100.00;98613.03;4184307;28;20114;-73
2023/05/06 06:31:17;;;;;;;10.80;7.03;;;;;;;12.05;100.00;98600.78;4180268;28;20079;-73
2023/05/06 06:33:17;;;;;;;10.13;8.15;;;;;;;12.21;100.00;98606.03;4181216;28;20080;-73
2023/05/06 06:35:19;;;;;;;8.32;6.35;;;;;;;12.42;100.00;98608.16;4178961;28;20382;-73
2023/05/06 06:37:19;;;;;;;8.55;6.20;;;;;;;12.27;100.00;98612.81;4181650;28;20040;-73
2023/05/06 06:39:19;;;;;;;10.38;6.75;;;;;;;12.06;100.00;98618.19;4182324;28;20449;-73
2023/05/06 06:41:20;;;;;;;9.50;7.28;;;;;;;12.04;100.00;98613.03;4184620;28;20125;-73
2023/05/06 06:43:20;;;;;;;14.90;8.57;;;;;;;12.07;100.00;98617.03;4182466;28;20118;-72
2023/05/06 06:45:22;;;;;;;7.70;6.18;;;;;;;11.95;100.00;98623.66;4183618;28;20102;-72
2023/05/06 06:47:22;;;;;;;8.13;6.50;;;;;;;12.10;100.00;98621.81;4184708;28;20043;-72
2023/05/06 06:49:22;;;;;;;9.15;7.13;;;;;;;12.35;100.00;98608.91;4178235;28;20089;-73
2023/05/06 06:51:23;;;;;;;10.55;7.82;;;;;;;12.41;100.00;98614.88;4178226;28;20333;-72
2023/05/06 06:53:23;;;;;;;10.00;7.45;;;;;;;12.34;100.00;98612.09;4180041;28;20171;-72
2023/05/06 06:55:23;;;;;;;8.68;6.30;;;;;;;12.17;100.00;98616.31;4181647;28;20186;-73
2023/05/06 06:57:24;;;;;;;7.90;6.13;;;;;;;12.14;100.00;98613.50;4179962;28;20194;-72
2023/05/06 06:59:24;;;;;;;9.98;6.65;;;;;;;12.09;100.00;98606.34;4179135;28;20068;-72
2023/05/06 07:01:24;;;;;;;7.97;5.60;;;;;;;12.14;100.00;98617.06;4179225;28;20118;-72
2023/05/06 07:03:25;;;;;;;8.00;6.68;;;;;;;12.11;100.00;98617.06;4177945;28;20057;-73
2023/05/06 07:05:26;;;;;;;7.60;5.80;;;;;;;12.09;100.00;98614.69;4180192;28;20037;-72
2023/05/06 07:07:26;;;;;;;8.43;5.75;;;;;;;12.15;100.00;98615.88;4180888;28;20079;-73
2023/05/06 07:09:26;;;;;;;7.15;5.40;;;;;;;12.17;100.00;98624.66;4180540;28;20044;-72
2023/05/06 07:11:26;;;;;;;9.48;5.45;;;;;;;12.18;100.00;98615.13;4177622;28;20053;-73
2023/05/06 07:13:27;;;;;;;8.80;5.80;;;;;;;12.20;100.00;98620.28;4179010;28;20136;-72
2023/05/06 07:15:27;;;;;;;6.65;5.38;;;;;;;12.44;100.00;98625.22;4181218;28;20041;-72
2023/05/06 07:17:27;;;;;;;6.30;5.15;;;;;;;12.48;100.00;98614.91;4179692;28;20068;-73
2023/05/06 07:19:28;;;;;;;5.97;5.13;;;;;;;12.40;100.00;98618.84;4179250;28;20140;-72
2023/05/06 07:21:31;;;;;;;6.88;5.30;;;;;;;12.46;100.00;98622.84;4181763;28;20041;-72
2023/05/06 07:23:31;;;;;;;6.63;4.88;;;;;;;12.52;100.00;98617.75;4181921;28;20102;-72
2023/05/06 07:25:31;;;;;;;6.32;4.78;;;;;;;12.58;100.00;98625.31;4183693;28;20606;-72
2023/05/06 07:27:32;;;;;;;6.20;5.05;;;;;;;12.60;100.00;98627.69;4180294;28;20160;-72
2023/05/06 07:29:34;;;;;;;6.05;4.50;;;;;;;12.65;100.00;98624.53;4180604;28;20227;-73
2023/05/06 07:31:34;;;;;;;8.13;5.15;;;;;;;12.67;100.00;98624.97;4181171;28;20040;-72
2023/05/06 07:33:35;;;;;;;7.10;4.80;;;;;;;12.82;100.00;98625.81;4181503;28;20047;-72
2023/05/06 07:35:35;;;;;;;6.65;4.53;;;;;;;12.86;100.00;98638.53;4181311;28;20131;-73
2023/05/06 07:37:36;;;;;;;6.15;4.45;;;;;;;12.76;100.00;98630.97;4175832;28;20044;-73
2023/05/06 07:39:36;;;;;;;6.18;4.85;;;;;;;12.79;100.00;98635.72;4183568;28;20342;-72
2023/05/06 07:41:36;;;;;;;5.90;4.55;;;;;;;12.49;100.00;98640.69;4180607;28;20515;-72
2023/05/06 07:43:37;;;;;;;9.00;4.72;;;;;;;12.40;100.00;98643.00;4176368;28;20037;-72
2023/05/06 07:45:37;;;;;;;5.63;4.45;;;;;;;12.65;100.00;98641.97;4178405;28;20123;-72
2023/05/06 07:47:37;;;;;;;6.05;4.80;;;;;;;12.89;100.00;98640.53;4179058;28;20045;-72
2023/05/06 07:49:38;;;;;;;6.63;4.40;;;;;;;13.07;100.00;98640.59;4177348;28;20033;-72
2023/05/06 07:51:41;;;;;;;7.20;4.68;;;;;;;13.18;100.00;98647.00;4179370;28;20528;-72
2023/05/06 07:53:41;;;;;;;7.63;4.32;;;;;;;13.14;100.00;98643.41;4179417;28;20040;-72
2023/05/06 07:55:41;;;;;;;6.07;4.55;;;;;;;13.19;100.00;98653.38;4177608;28;20385;-73
2023/05/06 07:57:42;;;;;;;6.88;4.68;;;;;;;13.24;100.00;98655.81;4178022;28;20048;-74
2023/05/06 07:59:43;;;;;;;6.82;4.78;;;;;;;13.15;100.00;98652.53;4180120;28;20048;-73
2023/05/06 08:01:43;;;;;;;5.55;4.40;;;;;;;13.13;100.00;98649.38;4180294;28;20055;-73
2023/05/06 08:03:43;;;;;;;6.35;4.13;;;;;;;13.33;100.00;98670.13;4179539;28;20677;-74
2023/05/06 08:05:44;;;;;;;6.22;4.40;;;;;;;13.18;100.00;98660.09;4179312;28;20051;-73
2023/05/06 08:07:44;;;;;;;5.45;4.10;;;;;;;13.43;100.00;98672.13;4181963;28;20049;-73
2023/05/06 08:09:45;;;;;;;5.47;3.83;;;;;;;13.46;100.00;98660.22;4177930;28;20091;-74
2023/05/06 08:11:45;;;;;;;4.28;3.53;;;;;;;13.45;100.00;98663.41;4178651;28;20048;-73
2023/05/06 08:13:46;;;;;;;9.52;4.72;;;;;;;13.38;100.00;98666.16;4179610;28;20476;-73
2023/05/06 08:15:46;;;;;;;5.97;4.47;;;;;;;13.44;100.00;98662.59;4183096;28;20044;-73
2023/05/06 08:17:46;;;;;;;5.90;3.90;;;;;;;13.61;100.00;98657.50;4181466;28;20033;-73
2023/05/06 08:19:46;;;;;;;5.55;4.30;;;;;;;13.74;100.00;98661.50;4183575;28;20283;-73
2023/05/06 08:21:47;;;;;;;4.18;3.65;;;;;;;13.78;100.00;98657.50;4180995;28;20048;-73
2023/05/06 08:23:47;;;;;;;4.93;4.05;;;;;;;13.83;100.00;98655.56;4180006;28;20429;-73
2023/05/06 08:25:48;;;;;;;3.88;3.35;;;;;;;13.56;100.00;98669.78;4183430;28;20041;-73
2023/05/06 08:27:48;;;;;;;5.57;3.20;;;;;;;13.71;100.00;98670.59;4180353;28;20484;-73
2023/05/06 08:29:48;;;;;;;4.57;3.42;;;;;;;13.67;100.00;98653.13;4180797;28;20083;-73
2023/05/06 08:31:49;;;;;;;4.18;2.83;;;;;;;13.59;100.00;98662.66;4183027;28;20063;-73
2023/05/06 08:33:50;;;;;;;4.90;3.30;;;;;;;13.70;100.00;98653.13;4183306;28;20072;-73
2023/05/06 08:35:50;;;;;;;5.60;3.42;;;;;;;13.73;100.00;98654.31;4180384;28;20033;-73
2023/05/06 08:37:50;;;;;;;4.53;3.30;;;;;;;13.89;100.00;98657.53;4186292;28;20110;-72
2023/05/06 08:39:51;;;;;;;4.05;3.05;;;;;;;13.94;100.00;98654.34;4179484;28;20049;-73
2023/05/06 08:41:52;;;;;;;4.05;2.72;;;;;;;14.05;100.00;98657.94;4184070;28;20041;-73
2023/05/06 08:43:54;;;;;;;3.17;2.83;;;;;;;13.97;100.00;98656.34;4184763;28;20150;-74
2023/05/06 08:45:54;;;;;;;9.18;6.05;;;;;;;14.02;100.00;98657.94;4181295;28;20040;-73
2023/05/06 08:47:54;;;;;;;4.70;3.00;;;;;;;14.04;100.00;98653.56;4184315;28;20045;-73
2023/05/06 08:49:55;;;;;;;4.75;2.85;;;;;;;14.21;100.00;98667.88;4183119;28;20063;-73
2023/05/06 08:51:56;;;;;;;3.95;3.22;;;;;;;14.11;100.00;98663.13;4181171;28;20464;-73
2023/05/06 08:54:00;;;;;;;4.60;3.80;;;;;;;14.05;100.00;98651.56;4180362;28;20072;-73
2023/05/06 08:56:03;;;;;;;2.83;2.40;;;;;;;13.95;100.00;98655.94;4183219;28;20045;-73
2023/05/06 08:58:06;;;;;;;3.65;2.08;;;;;;;13.93;100.00;98665.88;4184724;28;20416;-73
2023/05/06 09:00:09;;;;;;;2.50;2.00;;;;;;;14.05;100.00;98660.72;4185310;28;20054;-73
2023/05/06 09:02:10;;;;;;;2.20;1.60;;;;;;;14.20;100.00;98661.50;4184764;28;20056;-73
2023/05/06 09:04:11;;;;;;;2.83;2.28;;;;;;;14.26;100.00;98659.94;4177813;28;20025;-73
2023/05/06 09:06:11;;;;;;;3.05;2.10;;;;;;;14.22;100.00;98658.34;4180418;28;21034;-73
2023/05/06 09:08:13;;;;;;;3.45;2.20;;;;;;;14.18;100.00;98661.13;4181434;28;20024;-73
2023/05/06 09:10:14;;;;;;;3.00;2.10;;;;;;;14.39;100.00;98654.75;4185777;28;20034;-73
2023/05/06 09:12:14;;;;;;;2.63;1.80;;;;;;;14.49;100.00;98659.56;4182477;28;20699;-73
2023/05/06 09:14:16;;;;;;;4.40;2.55;;;;;;;14.57;100.00;98660.34;4186156;28;20073;-73
2023/05/06 09:16:29;;;;;;;2.65;2.03;;;;;;;14.43;100.00;98660.31;4184245;28;20074;-73
2023/05/06 09:18:30;;;;;;;5.03;2.40;;;;;;;14.53;100.00;98671.47;4184966;28;20082;-73
2023/05/06 09:20:32;;;;;;;3.63;2.35;;;;;;;14.61;100.00;98661.13;4184932;28;20037;-73
2023/05/06 09:22:38;;;;;;;2.53;1.75;;;;;;;14.86;100.00;98666.63;4179707;28;20059;-73